Search for airport 
image banner adimage banner adimage banner ad
image banner ad

TUPW - Spanishtown/Virgin Gorda (Virgin Gorda Is-B.V.I)

Located in Spanish Town, Virgin Islands British

ICAO - TUPW, IATA - VIJ

Data provided by Airmate  

General information

Coordinates: N18°26'48" W64°25'40"
Elevation is 9 feet MSL.
 
View others Airports in (unassigned)

Operational data

Special qualification required
Current time UTC:
Current local time:
Weather at : TUPJ - Terrance B Lettsome Intl ( 12 km )
METAR: TUPJ 171900Z 17011KT 10SM FEW024 29/24 A3001 RMK Q1016 VIS16KM
TAF: TAF TUPJ 171700Z 1712/1812 14009KT 9999 FEW022
View NOTAMs / SUP AIP / TFR affecting this airport [VIEW]
Communications frequencies: [VIEW]

Runways:

Airport contact information

Address: Spanish Town Virgin Islands British

Satellite view of TUPW